Time;durP1;ratioP1;P1;durP2;ratioP2;P2;SDS_P1;SDS_P2;PMS_P1;PMS_P2;Temp;Humidity;BMP_temperature;BMP_pressure;BME280_temperature;BME280_humidity;BME280_pressure;Samples;Min_cycle;Max_cycle;Signal;HPM_P1;HPM_P2
2022/09/18 00:01:30;;;;;;;6.27;1.77;;;12.70;1.00;;;;;;4971024;28;20204;-62
2022/09/18 00:04:00;;;;;;;6.97;1.83;;;12.60;1.00;;;;;;5004039;28;20202;-62
2022/09/18 00:06:31;;;;;;;4.77;2.20;;;12.50;50.60;;;;;;4987870;28;20237;-63
2022/09/18 00:09:00;;;;;;;7.87;2.10;;;12.60;99.90;;;;;;4969837;28;20209;-64
2022/09/18 00:11:32;;;;;;;11.87;2.10;;;12.70;1.00;;;;;;4986164;28;20216;-62
2022/09/18 00:13:59;;;;;;;5.80;2.30;;;12.50;1.00;;;;;;4969604;28;20264;-64
2022/09/18 00:16:26;;;;;;;8.07;2.00;;;12.30;99.90;;;;;;4969161;28;20244;-62
2022/09/18 00:18:53;;;;;;;7.00;1.80;;;12.50;99.90;;;;;;4969727;28;20214;-65
2022/09/18 00:21:23;;;;;;;7.20;2.50;;;12.60;99.90;;;;;;4968431;28;20190;-66
2022/09/18 00:23:55;;;;;;;9.00;2.37;;;12.60;99.90;;;;;;4978277;28;20733;-65
2022/09/18 00:26:24;;;;;;;8.00;2.53;;;12.50;99.90;;;;;;4970358;28;20202;-61
2022/09/18 00:28:56;;;;;;;8.03;2.10;;;12.50;99.90;;;;;;4952747;28;20233;-63
2022/09/18 00:31:30;;;;;;;6.80;2.10;;;12.40;99.90;;;;;;4957309;28;20750;-62
2022/09/18 00:33:59;;;;;;;5.97;2.03;;;12.30;99.90;;;;;;4952615;28;20198;-64
2022/09/18 00:36:28;;;;;;;4.63;2.10;;;12.40;1.00;;;;;;4967341;28;20210;-61
2022/09/18 00:38:58;;;;;;;9.50;1.93;;;12.40;1.00;;;;;;4951044;28;20194;-65
2022/09/18 00:41:30;;;;;;;9.30;2.50;;;12.50;99.90;;;;;;4944061;28;20209;-63
2022/09/18 00:44:31;;;;;;;6.63;2.27;;;12.30;99.90;;;;;;4936608;28;20233;-64
2022/09/18 00:47:14;;;;;;;3.47;1.83;;;12.30;1.00;;;;;;4968041;28;20562;-63
2022/09/18 00:50:15;;;;;;;9.60;2.40;;;12.60;1.00;;;;;;4969162;28;20565;-64
2022/09/18 00:52:49;;;;;;;5.97;1.70;;;12.60;99.90;;;;;;4967637;28;20202;-65
2022/09/18 00:55:22;;;;;;;7.13;1.97;;;12.70;1.00;;;;;;4951491;28;20205;-63
2022/09/18 00:57:55;;;;;;;6.50;1.70;;;12.50;99.90;;;;;;4951862;28;20294;-66
2022/09/18 01:00:22;;;;;;;5.27;2.00;;;12.60;99.90;;;;;;4967598;28;20285;-63
2022/09/18 01:02:50;;;;;;;5.00;1.73;;;12.50;99.90;;;;;;4968690;28;20230;-66
2022/09/18 01:05:41;;;;;;;5.97;2.37;;;12.50;1.00;;;;;;4967586;28;20680;-64
2022/09/18 01:08:36;;;;;;;6.73;3.87;;;12.50;99.90;;;;;;4960470;28;20209;-62
2022/09/18 01:11:09;;;;;;;6.23;2.60;;;12.30;1.00;;;;;;4964194;28;20559;-64
2022/09/18 01:13:55;;;;;;;5.17;2.27;;;12.40;1.00;;;;;;4965641;28;20237;-62
2022/09/18 01:16:33;;;;;;;4.40;2.00;;;12.40;99.90;;;;;;4976337;28;20727;-63
2022/09/18 01:19:38;;;;;;;5.50;2.60;;;12.50;1.00;;;;;;4988080;28;20664;-62
2022/09/18 01:22:21;;;;;;;4.13;1.70;;;12.30;1.00;;;;;;4931229;28;20202;-62
2022/09/18 01:25:00;;;;;;;6.47;2.17;;;12.50;1.00;;;;;;4957359;28;20205;-64
2022/09/18 01:27:48;;;;;;;5.60;2.20;;;12.40;99.90;;;;;;4990208;28;20197;-62
2022/09/18 01:30:15;;;;;;;6.37;1.90;;;12.20;1.00;;;;;;4974854;28;20736;-63
2022/09/18 01:32:58;;;;;;;7.87;2.30;;;12.30;1.00;;;;;;4977064;28;20189;-62
2022/09/18 01:35:49;;;;;;;5.77;2.00;;;12.40;99.90;;;;;;4959559;28;20300;-62
2022/09/18 01:38:25;;;;;;;10.33;2.53;;;12.00;1.00;;;;;;4976525;28;20229;-63
2022/09/18 01:41:00;;;;;;;5.03;2.17;;;11.90;1.00;;;;;;4992085;28;20208;-63
2022/09/18 01:43:29;;;;;;;3.80;2.10;;;11.90;1.00;;;;;;4975606;28;20248;-64
2022/09/18 01:46:04;;;;;;;4.63;2.20;;;11.90;10.10;;;;;;4978065;28;20197;-63
2022/09/18 01:49:06;;;;;;;4.73;2.10;;;11.90;23.80;;;;;;4960991;28;20201;-63
2022/09/18 01:51:44;;;;;;;4.97;1.90;;;12.20;1.00;;;;;;4973393;28;20741;-64
2022/09/18 01:54:18;;;;;;;6.43;2.90;;;12.20;1.00;;;;;;4975213;28;20257;-63
2022/09/18 01:56:53;;;;;;;10.97;6.17;;;12.40;1.00;;;;;;4975567;28;20213;-65
2022/09/18 01:59:28;;;;;;;17.27;7.83;;;12.50;1.00;;;;;;4988491;28;20239;-65
2022/09/18 02:02:11;;;;;;;16.90;8.23;;;12.80;99.90;;;;;;4957108;28;20213;-64
2022/09/18 02:04:41;;;;;;;12.73;6.70;;;13.00;99.90;;;;;;4960116;28;20228;-63
2022/09/18 02:07:23;;;;;;;8.77;3.30;;;13.20;3.50;;;;;;4959883;28;20203;-64
2022/09/18 02:09:50;;;;;;;10.57;2.77;;;13.20;1.00;;;;;;4960925;28;20201;-65
2022/09/18 02:12:21;;;;;;;9.50;3.97;;;12.70;99.90;;;;;;4956786;28;20230;-65
2022/09/18 02:14:57;;;;;;;11.47;5.27;;;12.50;99.90;;;;;;4992192;28;20206;-62
2022/09/18 02:17:39;;;;;;;7.83;3.30;;;12.30;1.00;;;;;;4961282;28;20354;-62
2022/09/18 02:20:15;;;;;;;12.00;5.30;;;12.10;1.00;;;;;;4959788;28;20194;-64
2022/09/18 02:22:44;;;;;;;14.10;9.13;;;12.10;1.00;;;;;;4961080;28;20233;-63
2022/09/18 02:25:16;;;;;;;10.60;5.10;;;12.30;1.00;;;;;;4945152;28;20201;-63
2022/09/18 02:27:43;;;;;;;12.77;6.97;;;12.40;1.00;;;;;;4975140;28;20226;-63
2022/09/18 02:30:11;;;;;;;12.60;8.40;;;12.40;1.00;;;;;;4963633;28;20289;-64
2022/09/18 02:32:39;;;;;;;11.60;7.43;;;12.50;1.00;;;;;;4976781;28;20211;-63
2022/09/18 02:35:08;;;;;;;6.87;4.73;;;12.60;99.90;;;;;;4975970;28;20230;-63
2022/09/18 02:38:02;;;;;;;11.43;6.80;;;12.50;99.90;;;;;;4959587;28;20353;-64
2022/09/18 02:40:58;;;;;;;12.20;8.53;;;12.40;1.00;;;;;;4965124;28;20206;-63
2022/09/18 02:43:25;;;;;;;12.83;7.67;;;12.50;1.00;;;;;;4979338;28;20666;-62
2022/09/18 02:46:28;;;;;;;14.70;8.07;;;12.40;1.00;;;;;;4989716;28;20200;-63
2022/09/18 02:49:10;;;;;;;15.07;6.10;;;12.40;1.00;;;;;;4946387;28;20612;-62
2022/09/18 02:51:55;;;;;;;13.07;5.90;;;12.40;1.00;;;;;;4959428;28;20194;-62
2022/09/18 02:54:26;;;;;;;14.87;7.20;;;12.30;1.00;;;;;;4962394;28;20288;-65
2022/09/18 02:57:03;;;;;;;12.00;5.33;;;12.20;1.00;;;;;;4947177;28;20214;-64
2022/09/18 02:59:52;;;;;;;10.80;5.63;;;12.10;1.00;;;;;;4961978;28;20202;-67
2022/09/18 03:02:21;;;;;;;11.80;5.60;;;12.20;1.00;;;;;;4991031;28;20257;-68
2022/09/18 03:04:50;;;;;;;9.60;5.77;;;12.30;1.00;;;;;;4960987;28;20262;-66
2022/09/18 03:07:46;;;;;;;12.07;6.53;;;12.40;1.00;;;;;;4963554;28;20210;-67
2022/09/18 03:10:13;;;;;;;11.13;5.77;;;12.30;1.00;;;;;;4965286;28;20232;-68
2022/09/18 03:12:40;;;;;;;17.80;6.50;;;12.20;1.00;;;;;;4966344;28;20260;-67
2022/09/18 03:15:07;;;;;;;12.23;7.00;;;12.10;1.00;;;;;;4983456;28;20206;-65
2022/09/18 03:17:34;;;;;;;14.57;5.90;;;12.40;1.00;;;;;;4985717;28;20228;-66
2022/09/18 03:20:03;;;;;;;10.50;6.77;;;12.30;1.00;;;;;;4981742;28;20203;-70
2022/09/18 03:22:30;;;;;;;10.27;6.67;;;12.30;1.00;;;;;;4970339;28;20200;-68
2022/09/18 03:24:57;;;;;;;13.33;5.70;;;12.30;1.00;;;;;;5004006;28;20193;-66
2022/09/18 03:27:24;;;;;;;12.20;4.83;;;12.30;1.00;;;;;;4993894;28;20304;-66
2022/09/18 03:29:52;;;;;;;9.37;5.37;;;12.50;1.00;;;;;;5002705;28;20201;-69
2022/09/18 03:32:22;;;;;;;11.33;5.80;;;12.70;1.00;;;;;;4988207;28;20205;-69
2022/09/18 03:34:51;;;;;;;13.23;5.40;;;12.60;1.00;;;;;;4972236;28;20673;-69
2022/09/18 03:37:17;;;;;;;11.13;5.20;;;12.50;1.00;;;;;;4979779;28;20387;-69
2022/09/18 03:39:45;;;;;;;11.87;5.73;;;12.40;1.00;;;;;;4963137;28;20259;-69
2022/09/18 03:42:13;;;;;;;11.07;4.90;;;12.30;1.00;;;;;;4970071;28;20693;-69
2022/09/18 03:44:40;;;;;;;11.07;5.10;;;12.30;1.00;;;;;;5002719;28;20206;-68
2022/09/18 03:47:26;;;;;;;11.73;5.67;;;12.20;22.80;;;;;;4988052;28;20182;-68
2022/09/18 03:49:53;;;;;;;10.27;5.33;;;12.40;1.00;;;;;;4987050;28;20202;-68
2022/09/18 03:52:21;;;;;;;11.07;5.53;;;12.50;1.00;;;;;;4970894;28;20257;-65
2022/09/18 03:54:53;;;;;;;13.57;6.00;;;12.70;1.00;;;;;;4977888;28;20229;-65
2022/09/18 03:57:41;;;;;;;14.40;10.17;;;12.80;1.00;;;;;;4986082;28;20288;-65
2022/09/18 04:00:34;;;;;;;20.00;13.80;;;13.10;1.00;;;;;;4953002;28;20854;-65
2022/09/18 04:03:07;;;;;;;22.37;14.30;;;13.20;99.90;;;;;;4970072;28;20249;-66
2022/09/18 04:05:53;;;;;;;19.43;12.70;;;12.90;99.90;;;;;;4989503;28;20342;-67
2022/09/18 04:08:26;;;;;;;17.70;13.03;;;13.00;99.90;;;;;;4989670;28;20186;-67
2022/09/18 04:11:11;;;;;;;20.57;11.60;;;13.00;99.90;;;;;;4971083;28;20193;-67
2022/09/18 04:13:38;;;;;;;19.20;9.90;;;13.00;99.90;;;;;;4955707;28;20336;-67
2022/09/18 04:16:08;;;;;;;21.17;12.70;;;13.00;99.90;;;;;;4984514;28;20199;-67
2022/09/18 04:18:36;;;;;;;21.37;13.93;;;13.20;99.90;;;;;;4969832;28;20225;-67
2022/09/18 04:21:04;;;;;;;11.77;7.57;;;13.30;99.90;;;;;;4936456;28;20664;-68
2022/09/18 04:23:31;;;;;;;14.57;9.87;;;13.20;99.90;;;;;;4954193;28;20194;-67
2022/09/18 04:26:08;;;;;;;10.37;6.17;;;13.20;99.90;;;;;;4952528;28;20610;-67
2022/09/18 04:28:40;;;;;;;10.27;5.23;;;13.10;99.90;;;;;;4952714;28;20387;-67
2022/09/18 04:31:09;;;;;;;12.90;7.27;;;13.10;99.90;;;;;;4959083;28;20931;-67
2022/09/18 04:33:36;;;;;;;11.27;5.80;;;13.20;99.90;;;;;;4967075;28;20213;-66
2022/09/18 04:36:06;;;;;;;8.17;4.77;;;13.20;99.90;;;;;;4947211;28;20195;-64
2022/09/18 04:38:34;;;;;;;12.77;6.03;;;13.30;99.90;;;;;;4945768;28;20270;-66
2022/09/18 04:41:01;;;;;;;8.60;4.50;;;13.10;99.90;;;;;;4952037;28;20718;-66
2022/09/18 04:43:29;;;;;;;7.40;4.63;;;12.80;99.90;;;;;;4957357;28;20293;-67
2022/09/18 04:45:57;;;;;;;12.27;6.17;;;12.90;99.90;;;;;;4981379;28;20684;-67
2022/09/18 04:48:24;;;;;;;11.53;6.07;;;12.70;1.00;;;;;;4947601;28;20227;-66
2022/09/18 04:50:52;;;;;;;6.23;4.63;;;12.40;1.00;;;;;;4984967;28;20577;-68
2022/09/18 04:53:20;;;;;;;13.57;5.47;;;12.40;1.00;;;;;;4944014;28;20206;-72
2022/09/18 04:55:48;;;;;;;12.93;5.73;;;12.30;1.00;;;;;;4970061;28;20290;-69
2022/09/18 04:58:16;;;;;;;12.17;5.53;;;12.20;27.20;;;;;;4967935;28;20301;-69
2022/09/18 05:00:50;;;;;;;11.67;5.90;;;12.20;8.70;;;;;;4959593;28;20199;-69
2022/09/18 05:03:19;;;;;;;7.83;4.40;;;12.20;29.80;;;;;;4962523;28;20205;-67
2022/09/18 05:05:49;;;;;;;9.03;5.23;;;12.10;90.10;;;;;;4949482;28;20208;-67
2022/09/18 05:08:16;;;;;;;11.10;5.80;;;12.00;99.90;;;;;;4967343;28;20685;-67
2022/09/18 05:10:43;;;;;;;10.80;6.50;;;12.20;99.90;;;;;;4984581;28;20206;-66
2022/09/18 05:13:11;;;;;;;11.37;7.97;;;12.20;97.90;;;;;;4962883;28;20261;-65
2022/09/18 05:15:45;;;;;;;10.00;6.87;;;12.20;99.90;;;;;;4986403;28;20661;-67
2022/09/18 05:18:12;;;;;;;10.73;5.83;;;12.50;1.00;;;;;;4999823;28;20222;-66
2022/09/18 05:20:39;;;;;;;12.20;6.77;;;12.40;1.00;;;;;;5003585;28;20198;-66
2022/09/18 05:23:07;;;;;;;8.90;6.10;;;12.60;1.00;;;;;;4975984;28;20681;-63
2022/09/18 05:25:35;;;;;;;12.53;7.00;;;12.60;1.00;;;;;;4980502;28;21837;-63
2022/09/18 05:28:03;;;;;;;10.83;5.03;;;12.50;1.00;;;;;;4969536;28;20202;-64
2022/09/18 05:30:42;;;;;;;12.13;5.80;;;12.70;1.00;;;;;;4970310;28;20213;-64
2022/09/18 05:33:10;;;;;;;10.50;6.67;;;12.90;99.90;;;;;;4985312;28;20256;-62
2022/09/18 05:35:39;;;;;;;10.07;5.53;;;12.90;99.90;;;;;;4980567;28;20206;-63
2022/09/18 05:38:06;;;;;;;10.60;6.07;;;12.90;1.00;;;;;;4987956;28;20245;-63
2022/09/18 05:40:36;;;;;;;10.87;5.17;;;12.80;1.00;;;;;;4953475;28;20222;-64
2022/09/18 05:43:04;;;;;;;8.87;4.67;;;12.80;1.00;;;;;;4977980;28;20220;-63
2022/09/18 05:45:33;;;;;;;8.33;5.83;;;12.80;1.00;;;;;;4970702;28;20778;-63
2022/09/18 05:48:05;;;;;;;8.47;4.43;;;12.70;1.00;;;;;;4976414;28;20205;-64
2022/09/18 05:50:35;;;;;;;8.60;4.93;;;12.80;1.00;;;;;;4982123;28;20240;-63
2022/09/18 05:53:09;;;;;;;6.63;4.87;;;12.70;1.00;;;;;;4970598;28;20576;-64
2022/09/18 05:56:05;;;;;;;8.37;4.77;;;12.70;1.00;;;;;;4963771;28;20217;-64
2022/09/18 05:58:32;;;;;;;7.03;4.20;;;13.30;99.90;;;;;;4965960;28;20296;-63
2022/09/18 06:01:01;;;;;;;7.53;4.37;;;13.20;99.90;;;;;;4977488;28;20847;-61
2022/09/18 06:03:42;;;;;;;6.73;4.97;;;13.10;99.90;;;;;;4969639;28;20193;-62
2022/09/18 06:06:11;;;;;;;7.83;4.57;;;13.00;99.90;;;;;;4977985;28;20201;-62
2022/09/18 06:08:38;;;;;;;6.83;4.00;;;13.20;99.90;;;;;;4963649;28;20205;-63
2022/09/18 06:11:05;;;;;;;8.40;4.70;;;12.90;1.00;;;;;;4972688;28;20607;-62
2022/09/18 06:13:32;;;;;;;7.30;5.57;;;12.80;1.00;;;;;;4976873;28;20269;-64
2022/09/18 06:16:00;;;;;;;6.93;4.60;;;12.90;1.00;;;;;;4976146;28;20825;-63
2022/09/18 06:18:45;;;;;;;8.47;3.90;;;13.10;1.00;;;;;;4944481;28;20293;-63
2022/09/18 06:21:13;;;;;;;9.43;4.87;;;12.90;1.00;;;;;;4960516;28;20198;-63
2022/09/18 06:23:42;;;;;;;7.13;4.23;;;12.90;1.00;;;;;;4929845;28;20237;-62
2022/09/18 06:26:18;;;;;;;8.13;5.20;;;13.00;1.00;;;;;;4949227;28;20704;-63
2022/09/18 06:28:46;;;;;;;9.00;4.90;;;13.10;1.00;;;;;;4959565;28;21039;-63
2022/09/18 06:31:14;;;;;;;9.97;4.97;;;13.10;1.00;;;;;;4984595;28;20206;-64
2022/09/18 06:34:04;;;;;;;6.07;3.23;;;13.10;1.00;;;;;;4960863;28;20210;-61
2022/09/18 06:36:31;;;;;;;8.90;4.67;;;13.10;1.00;;;;;;4988114;28;20220;-62
2022/09/18 06:39:17;;;;;;;6.83;4.07;;;12.90;1.00;;;;;;4976424;28;20204;-64
2022/09/18 06:41:48;;;;;;;8.50;4.67;;;13.10;1.00;;;;;;4951034;28;20203;-64
2022/09/18 06:44:25;;;;;;;9.23;4.53;;;13.20;1.00;;;;;;4949718;28;20228;-63
2022/09/18 06:47:10;;;;;;;7.53;4.47;;;13.40;99.90;;;;;;4945881;28;20202;-63
2022/09/18 06:49:41;;;;;;;7.23;3.80;;;13.20;1.00;;;;;;4950976;28;20630;-62
2022/09/18 06:52:08;;;;;;;6.43;4.60;;;13.30;1.00;;;;;;4975357;28;20285;-63
2022/09/18 06:54:36;;;;;;;7.17;4.50;;;12.90;1.00;;;;;;4959826;28;20202;-63
2022/09/18 06:57:05;;;;;;;8.57;4.33;;;13.10;1.00;;;;;;4975093;28;20265;-63
2022/09/18 06:59:32;;;;;;;8.37;3.40;;;13.20;1.00;;;;;;4986892;28;20876;-63
2022/09/18 07:01:59;;;;;;;8.90;5.80;;;13.00;1.00;;;;;;4971601;28;20188;-63
2022/09/18 07:04:51;;;;;;;10.63;4.87;;;13.10;1.00;;;;;;4974078;28;20202;-64
2022/09/18 07:07:19;;;;;;;8.07;4.00;;;13.10;1.00;;;;;;4972200;28;20587;-63
2022/09/18 07:09:49;;;;;;;8.50;4.03;;;12.90;1.00;;;;;;4959117;28;20210;-63
2022/09/18 07:12:33;;;;;;;6.77;3.70;;;12.90;1.00;;;;;;4965261;28;20252;-62
2022/09/18 07:15:04;;;;;;;11.33;6.50;;;13.20;1.00;;;;;;4975648;28;20297;-65
2022/09/18 07:17:32;;;;;;;10.27;5.53;;;13.30;1.00;;;;;;4982029;28;20221;-62
2022/09/18 07:20:00;;;;;;;10.93;6.00;;;13.50;1.00;;;;;;4990818;28;20200;-63
2022/09/18 07:22:36;;;;;;;8.77;5.00;;;13.70;99.90;;;;;;4965237;28;20285;-62
2022/09/18 07:25:05;;;;;;;10.47;5.30;;;13.80;99.90;;;;;;5003667;28;20568;-63
2022/09/18 07:27:33;;;;;;;9.63;5.00;;;13.90;99.90;;;;;;4988248;28;20209;-63
2022/09/18 07:30:01;;;;;;;9.10;5.50;;;14.00;16.80;;;;;;4973548;28;20546;-62
2022/09/18 07:32:28;;;;;;;10.80;7.00;;;14.20;1.00;;;;;;4968797;28;20205;-62
2022/09/18 07:34:56;;;;;;;10.20;6.27;;;14.30;1.00;;;;;;4983207;28;20206;-65
2022/09/18 07:37:28;;;;;;;11.07;4.30;;;14.50;1.00;;;;;;4972069;28;20220;-64
2022/09/18 07:40:16;;;;;;;16.10;12.33;;;14.30;1.00;;;;;;4992234;28;20201;-62
2022/09/18 07:43:05;;;;;;;12.60;7.87;;;13.90;99.90;;;;;;4973028;28;20201;-63
2022/09/18 07:45:34;;;;;;;14.50;9.57;;;13.50;99.90;;;;;;4973800;28;20793;-61
2022/09/18 07:48:02;;;;;;;17.47;13.00;;;13.50;99.90;;;;;;4965643;28;20206;-65
2022/09/18 07:50:32;;;;;;;13.23;8.37;;;13.60;99.90;;;;;;4968103;28;20208;-64
2022/09/18 07:53:02;;;;;;;14.87;11.87;;;13.60;99.90;;;;;;4978514;28;20193;-63
2022/09/18 07:55:35;;;;;;;19.23;13.70;;;13.60;99.90;;;;;;4978634;28;20210;-64
2022/09/18 07:58:05;;;;;;;12.77;9.37;;;13.80;99.90;;;;;;4962956;28;20295;-63
2022/09/18 08:01:02;;;;;;;14.97;12.20;;;13.90;99.90;;;;;;4973467;28;20614;-62
2022/09/18 08:03:31;;;;;;;14.63;10.87;;;14.20;1.00;;;;;;4966392;28;20225;-62
2022/09/18 08:06:20;;;;;;;10.23;7.50;;;14.40;1.00;;;;;;4988750;28;20685;-63
2022/09/18 08:09:16;;;;;;;14.43;9.93;;;14.60;1.00;;;;;;4922947;28;20259;-63
2022/09/18 08:12:02;;;;;;;12.97;6.57;;;15.00;1.00;;;;;;4982541;28;20240;-63
2022/09/18 08:14:48;;;;;;;11.23;6.13;;;14.90;1.00;;;;;;4962632;28;20213;-62
2022/09/18 08:17:25;;;;;;;15.70;8.10;;;14.70;1.00;;;;;;4939554;28;20202;-64
2022/09/18 08:20:17;;;;;;;7.57;4.77;;;14.80;1.00;;;;;;4984931;28;20221;-64
2022/09/18 08:23:02;;;;;;;7.55;4.45;;;14.90;1.00;;;;;;4939565;28;20190;-63
2022/09/18 08:25:30;;;;;;;8.00;5.43;;;15.00;1.00;;;;;;4953185;28;20194;-64
2022/09/18 08:28:01;;;;;;;9.15;5.18;;;14.90;1.00;;;;;;4954475;28;20209;-63
2022/09/18 08:30:48;;;;;;;6.47;5.00;;;14.90;1.00;;;;;;4970066;28;20222;-63
2022/09/18 08:33:16;;;;;;;12.43;5.03;;;14.70;1.00;;;;;;4951681;28;20744;-62
2022/09/18 08:35:43;;;;;;;10.37;5.60;;;14.60;1.00;;;;;;4937394;28;20286;-64
2022/09/18 08:38:24;;;;;;;8.10;3.90;;;14.50;1.00;;;;;;4953555;28;20310;-64
2022/09/18 08:41:41;;;;;;;9.30;4.70;;;14.60;1.00;;;;;;4954535;28;20277;-62
2022/09/18 08:44:23;;;;;;;6.47;3.93;;;14.70;1.00;;;;;;4900829;28;20198;-64
2022/09/18 08:46:59;;;;;;;9.97;4.73;;;14.50;1.00;;;;;;4952819;28;20240;-63
2022/09/18 08:49:31;;;;;;;6.77;3.90;;;14.40;6.80;;;;;;4967084;28;20242;-64
2022/09/18 08:52:09;;;;;;;6.00;3.87;;;14.40;99.90;;;;;;4966926;28;20612;-65
2022/09/18 08:54:59;;;;;;;4.07;3.30;;;14.40;69.40;;;;;;4965572;28;20679;-65
2022/09/18 08:57:42;;;;;;;7.43;3.47;;;14.20;99.90;;;;;;4903345;28;20257;-65
2022/09/18 09:00:30;;;;;;;5.20;2.60;;;14.00;99.90;;;;;;4966079;28;20190;-64
2022/09/18 09:03:45;;;;;;;5.97;3.47;;;14.00;99.90;;;;;;4942138;28;20289;-65
2022/09/18 09:06:28;;;;;;;8.77;3.80;;;13.70;1.00;;;;;;4964978;28;20238;-64
2022/09/18 09:09:36;;;;;;;5.50;3.20;;;14.10;99.90;;;;;;4961239;28;22082;-62
2022/09/18 09:12:41;;;;;;;9.03;4.60;;;14.20;1.00;;;;;;4941690;28;20667;-62
2022/09/18 09:15:12;;;;;;;11.07;7.10;;;14.40;1.00;;;;;;4966553;28;20206;-65
2022/09/18 09:17:49;;;;;;;9.37;7.13;;;14.70;1.00;;;;;;4983078;28;20297;-63
2022/09/18 09:20:41;;;;;;;7.40;5.73;;;14.90;1.00;;;;;;4953308;28;20194;-63
2022/09/18 09:23:27;;;;;;;5.27;3.70;;;14.90;1.00;;;;;;4948844;28;20253;-62
2022/09/18 09:26:08;;;;;;;9.57;4.97;;;14.90;1.00;;;;;;4981746;28;20293;-62
2022/09/18 09:29:22;;;;;;;10.03;7.60;;;15.00;1.00;;;;;;4921716;28;20224;-65
2022/09/18 09:32:28;;;;;;;7.30;3.93;;;14.80;1.00;;;;;;4966764;28;20205;-64
2022/09/18 09:35:26;;;;;;;9.23;5.20;;;14.90;1.00;;;;;;4969163;28;20194;-64
2022/09/18 09:38:47;;;;;;;11.53;6.30;;;14.40;21.10;;;;;;4966357;28;20224;-65
2022/09/18 09:41:40;;;;;;;7.07;4.10;;;14.30;72.60;;;;;;4919074;28;20194;-63
2022/09/18 09:45:01;;;;;;;16.80;11.10;;;14.30;1.00;;;;;;4952771;28;20198;-66
2022/09/18 09:47:46;;;;;;;11.57;8.00;;;14.30;1.00;;;;;;4905201;29;20209;-64
2022/09/18 09:50:31;;;;;;;6.07;3.73;;;14.40;27.70;;;;;;4965812;28;20190;-62
2022/09/18 09:53:08;;;;;;;7.53;3.47;;;14.60;1.00;;;;;;4965829;28;20265;-62
2022/09/18 09:55:39;;;;;;;18.53;13.10;;;14.60;1.00;;;;;;4951854;28;20296;-62
2022/09/18 09:58:44;;;;;;;16.93;11.13;;;14.70;1.00;;;;;;4938629;28;20221;-62
2022/09/18 10:01:26;;;;;;;15.20;11.90;;;14.80;1.00;;;;;;4958466;28;20193;-62
2022/09/18 10:04:24;;;;;;;7.90;4.57;;;15.00;1.00;;;;;;4951683;28;20205;-63
2022/09/18 10:07:29;;;;;;;12.43;7.83;;;14.90;1.00;;;;;;4966536;28;20206;-62
2022/09/18 10:10:16;;;;;;;8.60;5.53;;;15.20;1.00;;;;;;4952137;28;20611;-62
2022/09/18 10:12:53;;;;;;;9.83;6.80;;;15.30;99.90;;;;;;4989232;28;20248;-63
2022/09/18 10:15:29;;;;;;;9.25;6.30;;;15.40;99.90;;;;;;4979559;28;20312;-63
2022/09/18 10:18:00;;;;;;;8.02;5.90;;;15.40;99.90;;;;;;4967925;28;20283;-62
2022/09/18 10:20:30;;;;;;;5.97;3.92;;;15.50;99.90;;;;;;4983156;28;20190;-62
2022/09/18 10:23:05;;;;;;;5.35;3.25;;;15.50;99.90;;;;;;4964775;28;20232;-62
2022/09/18 10:25:40;;;;;;;7.82;4.45;;;15.40;99.90;;;;;;4965133;28;20276;-61
2022/09/18 10:28:12;;;;;;;6.35;3.92;;;15.30;99.90;;;;;;4980970;28;20692;-61
2022/09/18 10:31:13;;;;;;;5.57;3.30;;;15.50;99.90;;;;;;4984808;28;20190;-62
2022/09/18 10:33:51;;;;;;;9.00;3.33;;;15.40;99.90;;;;;;4922812;28;20288;-61
2022/09/18 10:36:41;;;;;;;4.22;2.72;;;15.60;99.90;;;;;;4986811;28;20209;-62
2022/09/18 10:39:26;;;;;;;5.20;2.92;;;15.50;99.90;;;;;;4969488;28;20220;-62
2022/09/18 10:42:10;;;;;;;4.22;2.50;;;15.50;99.90;;;;;;4984291;28;20221;-61
2022/09/18 10:44:47;;;;;;;4.57;2.50;;;15.50;99.90;;;;;;4985410;28;20198;-63
2022/09/18 10:47:24;;;;;;;2.88;2.20;;;15.60;99.90;;;;;;4963614;28;20210;-63
2022/09/18 10:49:55;;;;;;;2.78;1.95;;;15.70;99.80;;;;;;5003038;28;20256;-62
2022/09/18 10:52:26;;;;;;;3.97;2.03;;;15.70;99.90;;;;;;4974701;28;20202;-62
2022/09/18 10:55:01;;;;;;;3.50;1.98;;;15.70;99.90;;;;;;4974332;28;20197;-62
2022/09/18 10:57:32;;;;;;;3.75;2.15;;;15.70;99.90;;;;;;4989979;28;21010;-61
2022/09/18 11:00:18;;;;;;;3.80;1.55;;;15.60;99.90;;;;;;5005940;28;20228;-61
2022/09/18 11:02:58;;;;;;;3.22;1.90;;;15.60;99.90;;;;;;4986752;28;20276;-62
2022/09/18 11:05:36;;;;;;;2.85;1.40;;;15.70;99.90;;;;;;4998605;28;20246;-62
2022/09/18 11:08:15;;;;;;;1.90;1.58;;;15.80;99.90;;;;;;4972364;28;20193;-62
2022/09/18 11:10:50;;;;;;;2.45;1.50;;;15.90;99.90;;;;;;4973136;28;20205;-62
2022/09/18 11:13:25;;;;;;;3.00;1.80;;;16.10;21.20;;;;;;4958957;28;20233;-62
2022/09/18 11:15:58;;;;;;;9.18;5.53;;;15.90;15.70;;;;;;4970697;28;20878;-61
2022/09/18 11:18:28;;;;;;;11.87;9.90;;;15.80;42.00;;;;;;5002375;28;20214;-61
2022/09/18 11:20:59;;;;;;;15.73;13.02;;;15.80;7.70;;;;;;4989392;28;20198;-62
2022/09/18 11:23:29;;;;;;;8.00;6.35;;;15.70;3.10;;;;;;4981495;28;20227;-61
2022/09/18 11:26:21;;;;;;;7.10;4.75;;;15.50;14.40;;;;;;5000392;28;20714;-62
2022/09/18 11:29:23;;;;;;;3.53;1.93;;;15.50;65.10;;;;;;4981603;28;20206;-61
2022/09/18 11:32:17;;;;;;;2.20;1.67;;;15.30;1.00;;;;;;4971635;28;20205;-61
2022/09/18 11:34:53;;;;;;;2.57;1.50;;;15.10;99.90;;;;;;4990513;28;20206;-61
2022/09/18 11:37:42;;;;;;;1.83;1.20;;;15.00;99.90;;;;;;5005404;28;20605;-61
2022/09/18 11:40:27;;;;;;;3.13;1.60;;;14.90;99.90;;;;;;4972876;28;20213;-62
2022/09/18 11:42:55;;;;;;;2.67;1.40;;;15.00;99.90;;;;;;4985904;28;20548;-61
2022/09/18 11:45:41;;;;;;;1.83;1.10;;;15.00;99.90;;;;;;4967745;28;20564;-61
2022/09/18 11:48:27;;;;;;;1.20;1.07;;;15.10;99.90;;;;;;4963002;28;20225;-61
2022/09/18 11:51:00;;;;;;;1.73;1.00;;;14.90;99.90;;;;;;4968049;28;20202;-61
2022/09/18 11:53:54;;;;;;;6.23;3.73;;;14.90;99.90;;;;;;4989294;28;20200;-61
2022/09/18 11:56:39;;;;;;;12.00;8.50;;;15.00;99.90;;;;;;4984313;28;20289;-61
2022/09/18 11:59:30;;;;;;;13.07;9.43;;;15.10;99.90;;;;;;4981419;28;20216;-61
2022/09/18 12:02:09;;;;;;;5.60;3.93;;;15.20;99.90;;;;;;4985251;28;21109;-61
2022/09/18 12:04:48;;;;;;;7.27;5.50;;;15.10;99.90;;;;;;4969925;28;20261;-61
2022/09/18 12:07:55;;;;;;;5.37;4.13;;;15.20;99.90;;;;;;4999246;28;20197;-61
2022/09/18 12:10:44;;;;;;;3.05;2.17;;;15.40;99.90;;;;;;4913536;29;20251;-61
2022/09/18 12:13:56;;;;;;;3.03;2.13;;;15.40;99.90;;;;;;4979275;28;20237;-61
2022/09/18 12:16:48;;;;;;;3.03;1.80;;;15.10;1.00;;;;;;4967751;28;20229;-61
2022/09/18 12:19:48;;;;;;;6.87;1.73;;;14.90;1.00;;;;;;4990546;28;20218;-61
2022/09/18 12:22:26;;;;;;;2.70;1.40;;;14.60;1.00;;;;;;4969927;28;20201;-61
2022/09/18 12:24:55;;;;;;;4.67;1.40;;;14.40;1.00;;;;;;4966332;28;20232;-61
2022/09/18 12:28:24;;;;;;;2.53;1.63;;;14.10;1.00;;;;;;4986143;28;20258;-61
2022/09/18 12:31:10;;;;;;;2.53;1.23;;;13.90;1.00;;;;;;4964385;28;20202;-62
2022/09/18 12:34:19;;;;;;;2.63;1.10;;;13.90;1.00;;;;;;4979667;28;20310;-62
2022/09/18 12:36:52;;;;;;;2.33;1.07;;;13.70;1.00;;;;;;4986436;28;20197;-61
2022/09/18 12:39:50;;;;;;;4.80;1.50;;;13.90;1.00;;;;;;4990933;28;20237;-61
2022/09/18 12:42:54;;;;;;;8.07;5.33;;;13.90;1.00;;;;;;4986243;28;20182;-61
2022/09/18 12:45:30;;;;;;;10.53;8.00;;;14.00;1.00;;;;;;4989013;28;20292;-61
2022/09/18 12:48:24;;;;;;;9.63;6.53;;;13.80;1.00;;;;;;4986252;28;20189;-61
2022/09/18 12:51:00;;;;;;;6.13;4.43;;;13.90;99.90;;;;;;4989057;28;20611;-61
2022/09/18 12:53:53;;;;;;;3.63;2.80;;;13.90;99.90;;;;;;4987696;28;20693;-61
2022/09/18 12:56:49;;;;;;;3.30;1.60;;;13.90;92.30;;;;;;4988679;28;20251;-61
2022/09/18 12:59:25;;;;;;;5.93;2.77;;;13.90;1.00;;;;;;4982230;28;20751;-61
2022/09/18 13:02:22;;;;;;;3.50;2.40;;;13.80;99.90;;;;;;4984288;28;20264;-61
2022/09/18 13:05:10;;;;;;;4.53;1.50;;;13.70;99.90;;;;;;4952313;28;20635;-60
2022/09/18 13:07:44;;;;;;;4.17;1.60;;;13.60;99.90;;;;;;4984164;28;20519;-62
2022/09/18 13:10:44;;;;;;;2.73;1.23;;;13.60;99.90;;;;;;4968876;28;20197;-61
2022/09/18 13:13:56;;;;;;;2.20;1.30;;;13.50;99.90;;;;;;4949751;28;20238;-62
2022/09/18 13:16:34;;;;;;;3.10;1.50;;;13.40;99.90;;;;;;4984155;28;21065;-61
2022/09/18 13:19:08;;;;;;;3.27;1.73;;;13.30;99.90;;;;;;4971999;28;20241;-61
2022/09/18 13:21:40;;;;;;;3.37;1.40;;;12.80;1.00;;;;;;4961958;28;20209;-62
2022/09/18 13:24:20;;;;;;;2.03;1.40;;;12.50;1.00;;;;;;4986483;28;20201;-63
2022/09/18 13:26:49;;;;;;;5.00;1.30;;;12.60;1.00;;;;;;4969784;28;20229;-62
2022/09/18 13:29:51;;;;;;;5.33;2.20;;;12.70;1.00;;;;;;4971596;28;20284;-62
2022/09/18 13:32:30;;;;;;;2.80;1.90;;;12.70;1.00;;;;;;5003145;28;20290;-62
2022/09/18 13:35:11;;;;;;;2.53;1.50;;;12.90;1.00;;;;;;4988068;28;20221;-62
2022/09/18 13:37:40;;;;;;;4.10;2.67;;;12.90;1.00;;;;;;4971129;28;20225;-64
2022/09/18 13:40:39;;;;;;;6.00;2.53;;;13.00;1.00;;;;;;5000801;28;20234;-63
2022/09/18 13:43:45;;;;;;;3.03;1.90;;;13.10;1.00;;;;;;4973064;28;20241;-63
2022/09/18 13:46:37;;;;;;;2.50;1.60;;;13.10;1.00;;;;;;4988301;28;20197;-61